createdAt,value
2023-02-04T00:00:42.332Z,10.00
2023-02-04T00:03:28.053Z,10.10
2023-02-04T00:05:56.154Z,18.10
2023-02-04T00:08:24.224Z,15.80
2023-02-04T00:10:52.158Z,16.60
2023-02-04T00:13:20.216Z,13.70
2023-02-04T00:15:48.243Z,13.70
2023-02-04T00:18:16.432Z,12.50
2023-02-04T00:20:44.446Z,17.30
2023-02-04T00:23:12.557Z,9.60
2023-02-04T00:25:41.583Z,14.80
2023-02-04T00:28:09.782Z,15.10
2023-02-04T00:30:37.774Z,11.70
2023-02-04T00:33:05.875Z,7.80
2023-02-04T00:35:33.827Z,12.90
2023-02-04T00:38:01.903Z,14.10
2023-02-04T00:40:30.270Z,12.60
2023-02-04T00:42:58.584Z,12.50
2023-02-04T00:45:29.046Z,17.60
2023-02-04T00:47:57.534Z,11.60
2023-02-04T00:50:25.648Z,11.80
2023-02-04T00:52:53.611Z,16.80
2023-02-04T00:55:21.604Z,9.30
2023-02-04T00:57:51.494Z,10.90
2023-02-04T01:00:19.951Z,8.70
2023-02-04T01:02:47.885Z,8.70
2023-02-04T01:05:16.434Z,12.60
2023-02-04T01:07:46.506Z,12.20
2023-02-04T01:10:16.195Z,8.50
2023-02-04T01:12:44.804Z,10.60
2023-02-04T01:15:13.134Z,10.70
2023-02-04T01:17:41.955Z,7.10
2023-02-04T01:20:10.921Z,12.00
2023-02-04T01:22:38.874Z,8.00
2023-02-04T01:25:07.488Z,13.30
2023-02-04T01:27:44.711Z,8.40
2023-02-04T01:30:15.273Z,11.00
2023-02-04T01:32:43.232Z,13.70
2023-02-04T01:35:11.323Z,9.40
2023-02-04T01:37:40.995Z,6.50
2023-02-04T01:40:10.367Z,13.80
2023-02-04T01:42:38.576Z,6.40
2023-02-04T01:45:08.379Z,9.10
2023-02-04T01:47:37.082Z,8.50
2023-02-04T01:50:10.676Z,7.50
2023-02-04T01:52:40.000Z,8.20
2023-02-04T01:55:18.516Z,7.60
2023-02-04T01:57:47.381Z,9.00
2023-02-04T02:00:18.224Z,5.50
2023-02-04T02:02:51.636Z,10.10
2023-02-04T02:05:40.524Z,14.10
2023-02-04T02:08:09.071Z,9.00
2023-02-04T02:10:41.407Z,9.40
2023-02-04T02:13:13.977Z,8.30
2023-02-04T02:15:42.278Z,6.70
2023-02-04T02:18:11.847Z,7.50
2023-02-04T02:20:42.943Z,11.10
2023-02-04T02:23:49.706Z,9.60
2023-02-04T02:26:19.916Z,9.40
2023-02-04T02:28:49.538Z,12.00
2023-02-04T02:31:23.067Z,12.90
2023-02-04T02:33:51.268Z,11.10
2023-02-04T02:36:20.008Z,10.90
2023-02-04T02:38:47.909Z,6.10
2023-02-04T02:41:16.051Z,9.50
2023-02-04T02:43:44.759Z,11.90
2023-02-04T02:46:12.829Z,7.80
2023-02-04T02:48:40.862Z,5.00
2023-02-04T02:51:09.446Z,7.00
2023-02-04T02:53:37.962Z,7.40
2023-02-04T02:56:06.694Z,6.60
2023-02-04T02:58:36.527Z,5.40
2023-02-04T03:01:07.385Z,6.70
2023-02-04T03:03:40.422Z,7.40
2023-02-04T03:06:15.887Z,6.40
2023-02-04T03:08:44.933Z,4.50
2023-02-04T03:11:13.018Z,8.60
2023-02-04T03:13:43.050Z,8.50
2023-02-04T03:16:11.344Z,6.40
2023-02-04T03:18:39.537Z,8.40
2023-02-04T03:21:08.225Z,7.90
2023-02-04T03:23:38.513Z,9.70
2023-02-04T03:26:07.381Z,11.10
2023-02-04T03:28:40.037Z,9.40
2023-02-04T03:31:09.307Z,6.50
2023-02-04T03:33:37.539Z,10.60
2023-02-04T03:36:06.103Z,6.80
2023-02-04T03:38:34.453Z,14.50
2023-02-04T03:41:02.525Z,14.30
2023-02-04T03:43:32.384Z,11.40
2023-02-04T03:46:01.774Z,9.20
2023-02-04T03:48:30.089Z,5.90
2023-02-04T03:50:57.996Z,9.60
2023-02-04T03:53:26.379Z,10.30
2023-02-04T03:55:54.791Z,10.30
2023-02-04T03:58:22.942Z,12.80
2023-02-04T04:05:18.054Z,11.00
2023-02-04T04:07:46.256Z,13.70
2023-02-04T04:10:15.527Z,4.50
2023-02-04T04:12:43.518Z,13.60
2023-02-04T04:15:11.630Z,11.10
2023-02-04T04:17:39.983Z,16.70
2023-02-04T04:20:08.484Z,11.90
2023-02-04T04:22:37.680Z,6.30
2023-02-04T04:25:07.220Z,16.60
2023-02-04T04:27:35.252Z,8.80
2023-02-04T04:34:38.320Z,10.00
2023-02-04T04:37:06.389Z,9.90
2023-02-04T04:39:34.605Z,13.20
2023-02-04T04:42:02.774Z,10.90
2023-02-04T04:44:30.729Z,11.40
2023-02-04T04:46:58.730Z,12.50
2023-02-04T04:49:26.952Z,11.50
2023-02-04T04:51:55.122Z,15.20
2023-02-04T04:54:23.222Z,14.00
2023-02-04T04:56:51.447Z,15.30
2023-02-04T04:59:19.731Z,12.40
2023-02-04T05:01:47.751Z,13.40
2023-02-04T05:04:15.738Z,15.10
2023-02-04T05:06:43.703Z,12.10
2023-02-04T05:09:11.979Z,13.50
2023-02-04T05:11:40.378Z,15.60
2023-02-04T05:14:08.292Z,8.40
2023-02-04T05:16:36.418Z,14.50
2023-02-04T05:19:04.530Z,10.60
2023-02-04T05:21:32.751Z,12.20
2023-02-04T05:24:00.836Z,12.50
2023-02-04T05:26:31.046Z,13.70
2023-02-04T05:29:02.539Z,11.90
2023-02-04T05:31:31.219Z,10.20
2023-02-04T05:33:59.377Z,12.30
2023-02-04T05:36:27.548Z,12.10
2023-02-04T05:38:55.518Z,10.30
2023-02-04T05:41:23.499Z,10.70
2023-02-04T05:43:51.490Z,7.90
2023-02-04T05:46:19.489Z,8.70
2023-02-04T05:48:47.632Z,12.60
2023-02-04T05:51:16.074Z,9.80
2023-02-04T05:53:44.274Z,15.60
2023-02-04T05:56:12.229Z,8.20
2023-02-04T05:58:40.256Z,8.80
2023-02-04T06:01:08.456Z,13.10
2023-02-04T06:03:36.596Z,11.40
2023-02-04T06:06:04.795Z,13.00
2023-02-04T06:08:32.764Z,10.00
2023-02-04T06:11:00.748Z,9.20
2023-02-04T06:13:28.655Z,9.80
2023-02-04T06:15:56.621Z,13.60
2023-02-04T06:18:24.644Z,8.80
2023-02-04T06:20:52.631Z,7.30
2023-02-04T06:23:20.731Z,9.90
2023-02-04T06:25:50.407Z,9.40
2023-02-04T06:28:18.545Z,8.30
2023-02-04T06:30:46.896Z,11.00
2023-02-04T06:33:16.304Z,11.70
2023-02-04T06:35:44.660Z,10.20
2023-02-04T06:38:12.902Z,9.10
2023-02-04T06:40:40.896Z,9.00
2023-02-04T06:43:09.200Z,12.20
2023-02-04T06:45:37.229Z,11.40
2023-02-04T06:48:05.694Z,13.60
2023-02-04T06:50:33.961Z,9.90
2023-02-04T06:53:02.664Z,13.20
2023-02-04T06:55:30.953Z,12.00
2023-02-04T06:57:59.005Z,14.00
2023-02-04T07:00:26.976Z,10.70
2023-02-04T07:02:56.803Z,12.60
2023-02-04T07:05:26.108Z,9.80
2023-02-04T07:07:54.460Z,14.30
2023-02-04T07:10:22.778Z,13.40
2023-02-04T07:12:50.761Z,10.60
2023-02-04T07:15:19.102Z,10.60
2023-02-04T07:17:47.059Z,14.60
2023-02-04T07:20:15.244Z,10.60
2023-02-04T07:22:43.229Z,13.90
2023-02-04T07:25:15.214Z,4.70
2023-02-04T07:27:44.173Z,11.90
2023-02-04T07:30:13.277Z,6.10
2023-02-04T07:32:41.434Z,7.50
2023-02-04T07:35:10.470Z,14.30
2023-02-04T07:37:38.624Z,9.00
2023-02-04T07:40:07.359Z,5.40
2023-02-04T07:42:35.594Z,7.80
2023-02-04T07:45:07.870Z,7.90
2023-02-04T07:47:35.995Z,6.60
2023-02-04T07:50:04.557Z,11.00
2023-02-04T07:52:32.586Z,4.40
2023-02-04T07:55:00.748Z,7.20
2023-02-04T07:57:30.189Z,8.20
2023-02-04T07:59:59.342Z,7.10
2023-02-04T08:02:27.592Z,6.00
2023-02-04T08:04:55.902Z,7.50
2023-02-04T08:07:23.951Z,7.40
2023-02-04T08:09:52.540Z,8.20
2023-02-04T08:12:20.502Z,5.90
2023-02-04T08:14:48.678Z,7.30
2023-02-04T08:17:17.262Z,5.80
2023-02-04T08:19:45.592Z,5.70
2023-02-04T08:22:13.746Z,5.60
2023-02-04T08:24:42.036Z,5.70
2023-02-04T08:27:10.218Z,4.30
2023-02-04T08:29:38.483Z,6.30
2023-02-04T08:32:10.392Z,4.60
2023-02-04T08:34:38.472Z,5.70
2023-02-04T08:37:06.572Z,5.90
2023-02-04T08:39:34.695Z,3.30
2023-02-04T08:42:02.912Z,5.30
2023-02-04T08:44:31.266Z,6.10
2023-02-04T08:46:59.600Z,7.30
2023-02-04T08:49:27.956Z,3.20
2023-02-04T08:51:56.322Z,3.40
2023-02-04T08:54:26.365Z,5.40
2023-02-04T08:56:54.717Z,4.20
2023-02-04T08:59:24.333Z,4.70
2023-02-04T09:01:53.328Z,4.50
2023-02-04T09:04:23.986Z,5.80
2023-02-04T09:06:52.540Z,4.60
2023-02-04T09:09:23.011Z,3.00
2023-02-04T09:11:51.895Z,4.80
2023-02-04T09:14:19.925Z,6.30
2023-02-04T09:16:49.194Z,4.70
2023-02-04T09:19:19.474Z,5.10
2023-02-04T09:21:47.577Z,3.10
2023-02-04T09:24:15.736Z,9.50
2023-02-04T09:26:43.834Z,3.90
2023-02-04T09:29:11.819Z,4.00
2023-02-04T09:31:40.414Z,3.50
2023-02-04T09:34:08.613Z,4.00
2023-02-04T09:36:38.667Z,2.50
2023-02-04T09:39:09.982Z,3.80
2023-02-04T09:41:41.885Z,3.60
2023-02-04T09:44:20.062Z,1.80
2023-02-04T09:46:51.631Z,2.80
2023-02-04T09:49:20.268Z,3.40
2023-02-04T09:51:49.980Z,2.00
2023-02-04T09:54:20.653Z,3.90
2023-02-04T09:56:50.522Z,4.00
2023-02-04T09:59:21.574Z,4.70
2023-02-04T10:05:22.350Z,4.40
2023-02-04T10:07:52.134Z,8.20
2023-02-04T10:10:25.201Z,8.60
2023-02-04T10:13:00.291Z,6.90
2023-02-04T10:15:28.703Z,6.70
2023-02-04T10:18:03.726Z,7.90
2023-02-04T10:20:32.231Z,6.20
2023-02-04T10:23:00.512Z,6.40
2023-02-04T10:25:28.704Z,5.50
2023-02-04T10:28:00.953Z,4.90
2023-02-04T10:30:36.008Z,7.60
2023-02-04T10:33:16.310Z,6.70
2023-02-04T10:35:47.456Z,10.90
2023-02-04T10:38:15.727Z,12.50
2023-02-04T10:40:44.478Z,7.20
2023-02-04T10:43:22.801Z,5.90
2023-02-04T10:46:02.476Z,10.60
2023-02-04T10:48:39.049Z,5.10
2023-02-04T10:51:13.061Z,11.10
2023-02-04T10:54:00.644Z,7.90
2023-02-04T10:56:28.829Z,6.10
2023-02-04T10:58:57.030Z,5.80
2023-02-04T11:04:34.007Z,7.70
2023-02-04T11:07:02.046Z,6.90
2023-02-04T11:09:29.966Z,6.50
2023-02-04T11:11:58.424Z,5.50
2023-02-04T11:14:30.521Z,6.30
2023-02-04T11:19:35.858Z,6.90
2023-02-04T11:22:20.894Z,6.60
2023-02-04T11:24:49.281Z,6.90
2023-02-04T11:27:24.028Z,5.50
2023-02-04T11:29:53.173Z,10.70
2023-02-04T11:32:36.223Z,8.60
2023-02-04T11:35:13.490Z,5.90
2023-02-04T11:37:43.692Z,6.30
2023-02-04T11:40:34.956Z,7.30
2023-02-04T11:43:11.557Z,6.90
2023-02-04T11:45:41.823Z,8.50
2023-02-04T11:48:16.291Z,7.10
2023-02-04T11:50:59.210Z,7.50
2023-02-04T11:53:35.121Z,6.70
2023-02-04T11:56:03.565Z,6.80
2023-02-04T11:58:33.800Z,5.50
2023-02-04T12:01:01.942Z,7.00
2023-02-04T12:03:36.233Z,4.50
2023-02-04T12:06:04.421Z,10.00
2023-02-04T12:08:35.345Z,5.60
2023-02-04T12:11:30.395Z,8.40
2023-02-04T12:14:07.216Z,8.80
2023-02-04T12:16:53.441Z,8.40
2023-02-04T12:19:21.336Z,6.90
2023-02-04T12:21:49.634Z,6.80
2023-02-04T12:24:17.597Z,8.50
2023-02-04T12:26:45.564Z,8.30
2023-02-04T12:29:13.646Z,12.20
2023-02-04T12:31:42.302Z,9.20
2023-02-04T12:34:10.391Z,9.00
2023-02-04T12:36:38.421Z,7.30
2023-02-04T12:39:06.472Z,8.50
2023-02-04T12:41:34.695Z,8.80
2023-02-04T12:44:03.117Z,11.20
2023-02-04T12:46:31.147Z,11.40
2023-02-04T12:48:59.183Z,9.00
2023-02-04T12:51:27.209Z,9.40
2023-02-04T12:53:55.518Z,7.90
2023-02-04T12:56:24.340Z,7.50
2023-02-04T12:58:52.398Z,9.90
2023-02-04T13:01:20.284Z,10.90
2023-02-04T13:03:48.316Z,9.90
2023-02-04T13:06:16.205Z,10.10
2023-02-04T13:08:44.190Z,8.90
2023-02-04T13:11:12.353Z,9.70
2023-02-04T13:13:40.765Z,10.10
2023-02-04T13:16:08.863Z,7.90
2023-02-04T13:18:36.882Z,9.00
2023-02-04T13:21:05.121Z,10.50
2023-02-04T13:23:33.049Z,10.30
2023-02-04T13:26:01.025Z,6.50
2023-02-04T13:28:28.948Z,6.60
2023-02-04T13:30:56.837Z,10.40
2023-02-04T13:33:26.025Z,10.50
2023-02-04T13:35:54.204Z,8.70
2023-02-04T13:38:22.187Z,10.70
2023-02-04T13:40:50.173Z,8.70
2023-02-04T13:43:19.668Z,7.30
2023-02-04T13:45:49.071Z,9.80
2023-02-04T13:48:17.459Z,10.90
2023-02-04T13:50:45.418Z,9.80
2023-02-04T13:53:13.545Z,10.40
2023-02-04T13:55:43.225Z,8.00
2023-02-04T13:58:11.234Z,9.50
2023-02-04T14:00:39.325Z,6.50
2023-02-04T14:06:11.566Z,8.50
2023-02-04T14:08:39.821Z,8.00
2023-02-04T14:11:07.915Z,9.40
2023-02-04T14:13:35.797Z,6.80
2023-02-04T14:16:05.713Z,11.70
2023-02-04T14:18:33.728Z,7.60
2023-02-04T14:21:01.779Z,9.20
2023-02-04T14:23:29.913Z,7.00
2023-02-04T14:25:57.981Z,9.40
2023-02-04T14:28:26.113Z,9.00
2023-02-04T14:30:54.958Z,8.50
2023-02-04T14:33:23.579Z,7.50
2023-02-04T14:35:52.130Z,10.50
2023-02-04T14:38:20.455Z,10.40
2023-02-04T14:40:48.814Z,8.30
2023-02-04T14:43:16.901Z,6.60
2023-02-04T14:45:44.908Z,10.90
2023-02-04T14:48:12.934Z,10.60
2023-02-04T14:50:41.021Z,10.30
2023-02-04T14:53:09.132Z,10.70
2023-02-04T14:55:37.076Z,8.90
2023-02-04T14:58:05.480Z,11.00
2023-02-04T15:00:33.896Z,9.90
2023-02-04T15:03:02.102Z,13.70
2023-02-04T15:05:30.198Z,14.00
2023-02-04T15:07:58.153Z,10.20
2023-02-04T15:10:26.161Z,12.30
2023-02-04T15:12:55.489Z,11.50
2023-02-04T15:15:24.644Z,15.20
2023-02-04T15:17:52.717Z,8.70
2023-02-04T15:20:20.713Z,11.40
2023-02-04T15:22:52.036Z,11.10
2023-02-04T15:25:20.259Z,9.00
2023-02-04T15:27:48.647Z,9.30
2023-02-04T15:30:16.981Z,13.30
2023-02-04T15:32:46.098Z,12.70
2023-02-04T15:35:14.548Z,11.70
2023-02-04T15:37:42.676Z,12.50
2023-02-04T15:40:11.484Z,10.80
2023-02-04T15:42:39.704Z,11.10
2023-02-04T15:45:08.415Z,11.40
2023-02-04T15:47:36.474Z,16.00
2023-02-04T15:50:06.587Z,14.60
2023-02-04T15:52:34.545Z,13.00
2023-02-04T15:55:02.506Z,12.40
2023-02-04T15:57:30.395Z,14.50
2023-02-04T15:59:58.449Z,22.20
2023-02-04T16:02:46.494Z,21.40
2023-02-04T16:05:14.925Z,19.30
2023-02-04T16:07:43.273Z,16.00
2023-02-04T16:10:11.408Z,20.50
2023-02-04T16:12:39.432Z,17.80
2023-02-04T16:15:07.989Z,15.90
2023-02-04T16:17:35.986Z,16.30
2023-02-04T16:20:04.428Z,15.30
2023-02-04T16:22:32.546Z,20.60
2023-02-04T16:25:00.574Z,22.30
2023-02-04T16:27:28.845Z,20.80
2023-02-04T16:29:57.030Z,15.90
2023-02-04T16:32:25.144Z,17.70
2023-02-04T16:34:53.989Z,18.70
2023-02-04T16:37:22.284Z,16.00
2023-02-04T16:39:52.151Z,16.00
2023-02-04T16:42:20.107Z,20.40
2023-02-04T16:44:48.054Z,16.80
2023-02-04T16:47:16.629Z,21.30
2023-02-04T16:49:45.007Z,15.20
2023-02-04T16:52:13.109Z,19.80
2023-02-04T16:54:41.188Z,22.60
2023-02-04T16:57:09.448Z,21.30
2023-02-04T16:59:38.437Z,17.60
2023-02-04T17:02:07.008Z,21.20
2023-02-04T17:04:35.077Z,16.60
2023-02-04T17:07:03.502Z,21.30
2023-02-04T17:09:31.526Z,20.20
2023-02-04T17:11:59.449Z,26.00
2023-02-04T17:14:27.629Z,21.80
2023-02-04T17:16:55.533Z,20.20
2023-02-04T17:19:24.698Z,24.00
2023-02-04T17:21:54.064Z,24.00
2023-02-04T17:24:22.072Z,20.90
2023-02-04T17:26:50.075Z,19.20
2023-02-04T17:29:18.207Z,16.50
2023-02-04T17:31:46.239Z,18.80
2023-02-04T17:34:14.204Z,23.60
2023-02-04T17:36:42.208Z,18.20
2023-02-04T17:39:10.543Z,20.90
2023-02-04T17:41:38.522Z,25.20
2023-02-04T17:44:06.427Z,27.40
2023-02-04T17:46:37.192Z,24.70
2023-02-04T17:49:05.258Z,21.60
2023-02-04T17:51:33.236Z,25.50
2023-02-04T17:54:01.258Z,21.70
2023-02-04T17:56:29.469Z,21.70
2023-02-04T17:58:57.529Z,25.30
2023-02-04T18:01:26.324Z,24.50
2023-02-04T18:03:54.791Z,18.90
2023-02-04T18:06:27.295Z,23.20
2023-02-04T18:09:01.614Z,29.50
2023-02-04T18:11:36.421Z,25.20
2023-02-04T18:14:15.679Z,25.00
2023-02-04T18:16:44.698Z,29.00
2023-02-04T18:19:19.093Z,24.20
2023-02-04T18:21:49.471Z,23.00
2023-02-04T18:24:21.846Z,27.50
2023-02-04T18:26:52.792Z,26.00
2023-02-04T18:29:30.363Z,22.90
2023-02-04T18:32:20.287Z,31.40
2023-02-04T18:34:51.725Z,35.60
2023-02-04T18:37:34.249Z,27.70
2023-02-04T18:40:14.320Z,22.70
2023-02-04T18:42:44.789Z,35.00
2023-02-04T18:45:31.369Z,26.70
2023-02-04T18:48:16.310Z,29.60
2023-02-04T18:50:46.386Z,32.10
2023-02-04T18:53:14.975Z,31.70
2023-02-04T18:55:47.524Z,32.40
2023-02-04T18:58:34.428Z,35.00
2023-02-04T19:04:34.581Z,37.10
2023-02-04T19:07:11.304Z,36.90
2023-02-04T19:09:39.529Z,39.10
2023-02-04T19:12:22.450Z,33.60
2023-02-04T19:14:50.534Z,39.60
2023-02-04T19:17:30.170Z,37.60
2023-02-04T19:20:23.062Z,36.50
2023-02-04T19:22:54.980Z,35.80
2023-02-04T19:25:35.860Z,33.10
2023-02-04T19:28:18.511Z,35.60
2023-02-04T19:30:50.968Z,31.40
2023-02-04T19:33:42.460Z,35.10
2023-02-04T19:36:30.534Z,33.00
2023-02-04T19:39:03.718Z,34.50
2023-02-04T19:41:48.174Z,34.80
2023-02-04T19:44:22.590Z,33.20
2023-02-04T19:46:50.509Z,33.20
2023-02-04T19:49:21.697Z,34.80
2023-02-04T19:51:55.006Z,37.10
2023-02-04T19:54:38.666Z,33.10
2023-02-04T19:57:24.294Z,32.40
2023-02-04T19:59:56.697Z,34.70
2023-02-04T20:02:36.229Z,37.40
2023-02-04T20:05:18.756Z,40.20
2023-02-04T20:07:47.095Z,40.70
2023-02-04T20:10:25.883Z,38.30
2023-02-04T20:13:11.082Z,43.60
2023-02-04T20:15:39.166Z,43.90
2023-02-04T20:18:17.188Z,37.50
2023-02-04T20:20:47.116Z,39.80
2023-02-04T20:23:33.109Z,46.80
2023-02-04T20:26:01.600Z,36.50
2023-02-04T20:28:41.076Z,37.00
2023-02-04T20:31:24.445Z,39.10
2023-02-04T20:33:56.065Z,37.50
2023-02-04T20:36:34.562Z,33.70
2023-02-04T20:39:33.402Z,34.60
2023-02-04T20:42:33.989Z,42.10
2023-02-04T20:45:30.559Z,41.10
2023-02-04T20:48:16.975Z,38.50
2023-02-04T20:50:52.199Z,39.50
2023-02-04T20:53:23.575Z,40.60
2023-02-04T20:56:07.017Z,38.30
2023-02-04T20:58:41.224Z,32.90
2023-02-04T21:01:41.203Z,38.20
2023-02-04T21:04:24.424Z,43.10
2023-02-04T21:07:00.901Z,36.20
2023-02-04T21:09:32.231Z,36.50
2023-02-04T21:12:02.455Z,34.50
2023-02-04T21:14:30.787Z,38.00
2023-02-04T21:16:59.001Z,35.60
2023-02-04T21:19:30.747Z,36.70
2023-02-04T21:21:59.197Z,33.00
2023-02-04T21:24:30.579Z,36.30
2023-02-04T21:26:59.072Z,37.40
2023-02-04T21:29:27.199Z,36.10
2023-02-04T21:31:56.306Z,33.80
2023-02-04T21:34:24.283Z,32.30
2023-02-04T21:36:52.314Z,26.80
2023-02-04T21:39:20.862Z,28.70
2023-02-04T21:42:08.961Z,35.40
2023-02-04T21:44:38.161Z,33.50
2023-02-04T21:47:06.553Z,32.30
2023-02-04T21:49:38.153Z,25.70
2023-02-04T21:52:07.805Z,26.40
2023-02-04T21:54:36.432Z,26.10
2023-02-04T21:57:04.570Z,27.40
2023-02-04T21:59:32.948Z,27.30
2023-02-04T22:02:01.093Z,28.40
2023-02-04T22:04:29.839Z,27.60
2023-02-04T22:06:58.178Z,26.40
2023-02-04T22:09:26.191Z,33.90
2023-02-04T22:11:54.125Z,25.50
2023-02-04T22:14:40.831Z,29.40
2023-02-04T22:17:09.109Z,32.00
2023-02-04T22:19:43.144Z,30.80
2023-02-04T22:22:11.224Z,26.40
2023-02-04T22:24:39.259Z,28.30
2023-02-04T22:27:08.264Z,28.00
2023-02-04T22:29:36.278Z,27.00
2023-02-04T22:32:04.431Z,24.80
2023-02-04T22:34:32.484Z,29.90
2023-02-04T22:37:00.545Z,29.50
2023-02-04T22:39:29.063Z,33.00
2023-02-04T22:41:57.072Z,27.90
2023-02-04T22:44:25.173Z,28.30
2023-02-04T22:46:53.987Z,25.00
2023-02-04T22:49:22.081Z,31.10
2023-02-04T22:51:50.056Z,28.50
2023-02-04T22:54:18.176Z,32.80
2023-02-04T22:56:46.220Z,29.20
2023-02-04T22:59:16.069Z,34.30
2023-02-04T23:01:44.760Z,35.80
2023-02-04T23:04:12.687Z,32.00
2023-02-04T23:06:40.711Z,35.10
2023-02-04T23:09:09.367Z,31.10
2023-02-04T23:11:37.647Z,31.00
2023-02-04T23:14:05.653Z,33.40
2023-02-04T23:16:33.933Z,37.10
2023-02-04T23:19:02.243Z,33.90
2023-02-04T23:21:30.330Z,33.90
2023-02-04T23:23:59.192Z,33.40
2023-02-04T23:26:27.812Z,32.70
2023-02-04T23:28:55.944Z,32.70
2023-02-04T23:31:24.427Z,32.10
2023-02-04T23:33:52.535Z,35.40
2023-02-04T23:36:20.564Z,33.10
2023-02-04T23:38:52.165Z,32.70
2023-02-04T23:41:23.460Z,32.30
2023-02-04T23:43:51.468Z,36.60
2023-02-04T23:46:19.620Z,34.50
2023-02-04T23:48:47.943Z,29.80
2023-02-04T23:51:16.478Z,32.40
2023-02-04T23:53:44.804Z,36.40
2023-02-04T23:56:12.790Z,34.40
2023-02-04T23:58:40.947Z,27.90
